Aérodrome :
LOGIN :

S'inscrire | Disclaimer

   EN    FR    IT 

 










Légende :    VFR   VFR Marginal   IFR   IFR Intensif   IFR Très Intensif
Visi : 
Plafond : 
>= 8 km
>= 3000ft
5 à 8 km
1000 à 3000 ft
1500m à 5 km
500 à 1000 ft
800 à 1500m
200 à 500 ft
< 800m
< 200 ft
Symboles :   Orages  Brouillard  Fortes neiges  Fortes précipitations  Vent > 20 kt
SIGMETs :   Divers  Orages  Givrage  Turbulence  Onde Orograph.  Cendres Volcan.






- Altitude de l'aérodrome : 117 ft
- Code IATA : NWI


EGSH - Norwich

DERNIER METAR :
  • 040320Z AUTO 20004KT 9999 NCD 04/02 Q1019

METARs EXPIRÉS :
  • 040250Z AUTO 20005KT 9999 NCD 03/02 Q1019
  • 040220Z AUTO 20005KT 9999 NCD 04/03 Q1019
  • 040150Z AUTO 20006KT 9999 NCD 05/03 Q1019
  • 040120Z AUTO 19007KT 9999 NCD 05/04 Q1019
  • 040050Z AUTO 20006KT 9999 NCD 05/04 Q1019

TAF TAF EGSH
Valide du 04 à 03h jusqu'au 04 à 12h UTC


040158Z 0403/0412 19005KT 9999 FEW040
ATIS : +44 1603 420 640



MET'MAP, la Météo Aéronautique d'un coup d'oeil ! - Copyright ORBIFLY Décembre 2007 - Disclaimer

ORBIFLY MET'MAP TEAM :

Programmation & Développement : Alexandra Zaïnal
Sur une idée originale de : Baudouin d'Aumeries
Assistance à la programmation : Marc-Olivier Méhu
Soutien technique & logistique : Manuel Goepfert

Contact : metmap@orbifly.com




SOURCES & CREDITS :

   NOAA